sensor_id;sensor_type;location;lat;lon;timestamp;pressure;altitude;pressure_sealevel;temperature;humidity
21300;BME280;10809;49.476;11.016;2023-03-18T00:01:22;97836.97;;;9.27;41.65
21300;BME280;10809;49.476;11.016;2023-03-18T00:03:52;97845.06;;;9.24;41.42
21300;BME280;10809;49.476;11.016;2023-03-18T00:06:23;97846.16;;;9.20;41.85
21300;BME280;10809;49.476;11.016;2023-03-18T00:08:53;97839.28;;;9.17;42.23
21300;BME280;10809;49.476;11.016;2023-03-18T00:11:27;97837.69;;;9.15;41.75
21300;BME280;10809;49.476;11.016;2023-03-18T00:13:58;97841.31;;;9.12;42.14
21300;BME280;10809;49.476;11.016;2023-03-18T00:16:31;97838.88;;;9.09;42.18
21300;BME280;10809;49.476;11.016;2023-03-18T00:19:05;97840.69;;;9.09;41.86
21300;BME280;10809;49.476;11.016;2023-03-18T00:21:36;97838.13;;;9.07;42.06
21300;BME280;10809;49.476;11.016;2023-03-18T00:24:10;97839.13;;;9.05;42.14
21300;BME280;10809;49.476;11.016;2023-03-18T00:26:42;97841.84;;;9.03;41.87
21300;BME280;10809;49.476;11.016;2023-03-18T00:29:13;97834.88;;;9.02;41.73
21300;BME280;10809;49.476;11.016;2023-03-18T00:31:47;97837.59;;;9.01;41.97
21300;BME280;10809;49.476;11.016;2023-03-18T00:34:19;97847.31;;;9.00;42.15
21300;BME280;10809;49.476;11.016;2023-03-18T00:36:50;97844.75;;;8.99;42.10
21300;BME280;10809;49.476;11.016;2023-03-18T00:39:26;97837.78;;;8.98;42.02
21300;BME280;10809;49.476;11.016;2023-03-18T00:42:01;97838.72;;;8.97;42.55
21300;BME280;10809;49.476;11.016;2023-03-18T00:44:40;97848.44;;;8.96;42.27
21300;BME280;10809;49.476;11.016;2023-03-18T00:47:16;97846.81;;;8.94;42.25
21300;BME280;10809;49.476;11.016;2023-03-18T00:49:47;97848.59;;;8.93;42.61
21300;BME280;10809;49.476;11.016;2023-03-18T00:52:17;97851.34;;;8.92;42.30
21300;BME280;10809;49.476;11.016;2023-03-18T00:54:52;97846.13;;;8.90;42.37
21300;BME280;10809;49.476;11.016;2023-03-18T00:57:23;97849.81;;;8.88;42.74
21300;BME280;10809;49.476;11.016;2023-03-18T01:00:00;97841.03;;;8.87;42.15
21300;BME280;10809;49.476;11.016;2023-03-18T01:02:32;97847.25;;;8.86;42.46
21300;BME280;10809;49.476;11.016;2023-03-18T01:05:11;97837.63;;;8.85;42.38
21300;BME280;10809;49.476;11.016;2023-03-18T01:07:53;97839.50;;;8.83;42.41
21300;BME280;10809;49.476;11.016;2023-03-18T01:10:25;97841.28;;;8.83;42.76
21300;BME280;10809;49.476;11.016;2023-03-18T01:12:57;97842.25;;;8.82;42.38
21300;BME280;10809;49.476;11.016;2023-03-18T01:15:27;97838.81;;;8.80;42.42
21300;BME280;10809;49.476;11.016;2023-03-18T01:17:58;97846.75;;;8.80;42.49
21300;BME280;10809;49.476;11.016;2023-03-18T01:20:37;97848.69;;;8.76;42.43
21300;BME280;10809;49.476;11.016;2023-03-18T01:23:07;97846.13;;;8.75;42.32
21300;BME280;10809;49.476;11.016;2023-03-18T01:25:39;97851.59;;;8.72;42.33
21300;BME280;10809;49.476;11.016;2023-03-18T01:28:12;97852.63;;;8.69;42.42
21300;BME280;10809;49.476;11.016;2023-03-18T01:30:43;97853.69;;;8.65;42.51
21300;BME280;10809;49.476;11.016;2023-03-18T01:33:15;97857.38;;;8.63;42.77
21300;BME280;10809;49.476;11.016;2023-03-18T01:35:45;97854.00;;;8.59;42.50
21300;BME280;10809;49.476;11.016;2023-03-18T01:38:21;97852.41;;;8.57;42.54
21300;BME280;10809;49.476;11.016;2023-03-18T01:40:52;97862.25;;;8.53;42.64
21300;BME280;10809;49.476;11.016;2023-03-18T01:43:33;97861.44;;;8.53;43.02
21300;BME280;10809;49.476;11.016;2023-03-18T01:46:29;97859.88;;;8.49;42.85
21300;BME280;10809;49.476;11.016;2023-03-18T01:49:05;97860.81;;;8.48;42.71
21300;BME280;10809;49.476;11.016;2023-03-18T01:51:38;97852.13;;;8.46;42.88
21300;BME280;10809;49.476;11.016;2023-03-18T01:54:17;97854.00;;;8.44;43.07
21300;BME280;10809;49.476;11.016;2023-03-18T01:56:52;97858.44;;;8.43;43.00
21300;BME280;10809;49.476;11.016;2023-03-18T01:59:28;97854.19;;;8.41;43.32
21300;BME280;10809;49.476;11.016;2023-03-18T02:02:05;97856.81;;;8.41;43.17
21300;BME280;10809;49.476;11.016;2023-03-18T02:04:49;97862.25;;;8.38;43.30
21300;BME280;10809;49.476;11.016;2023-03-18T02:07:23;97869.31;;;8.37;43.30
21300;BME280;10809;49.476;11.016;2023-03-18T02:09:56;97870.25;;;8.36;43.62
21300;BME280;10809;49.476;11.016;2023-03-18T02:12:31;97872.03;;;8.36;43.58
21300;BME280;10809;49.476;11.016;2023-03-18T02:15:10;97876.53;;;8.34;43.48
21300;BME280;10809;49.476;11.016;2023-03-18T02:17:51;97873.06;;;8.33;43.19
21300;BME280;10809;49.476;11.016;2023-03-18T02:26:57;97882.91;;;8.30;43.24
21300;BME280;10809;49.476;11.016;2023-03-18T02:29:35;97883.00;;;8.28;43.58
21300;BME280;10809;49.476;11.016;2023-03-18T02:32:11;97883.00;;;8.28;43.71
21300;BME280;10809;49.476;11.016;2023-03-18T02:34:43;97884.06;;;8.24;43.78
21300;BME280;10809;49.476;11.016;2023-03-18T02:37:15;97880.59;;;8.24;44.01
21300;BME280;10809;49.476;11.016;2023-03-18T02:39:46;97878.13;;;8.21;43.98
21300;BME280;10809;49.476;11.016;2023-03-18T02:42:29;97891.38;;;8.19;43.71
21300;BME280;10809;49.476;11.016;2023-03-18T02:45:01;97892.31;;;8.18;43.96
21300;BME280;10809;49.476;11.016;2023-03-18T02:47:48;97897.66;;;8.17;44.05
21300;BME280;10809;49.476;11.016;2023-03-18T02:50:19;97888.91;;;8.16;43.87
21300;BME280;10809;49.476;11.016;2023-03-18T02:52:50;97887.28;;;8.14;43.87
21300;BME280;10809;49.476;11.016;2023-03-18T02:55:25;97894.44;;;8.12;43.92
21300;BME280;10809;49.476;11.016;2023-03-18T02:57:59;97895.41;;;8.09;44.04
21300;BME280;10809;49.476;11.016;2023-03-18T03:00:30;97902.50;;;8.09;44.21
21300;BME280;10809;49.476;11.016;2023-03-18T03:03:02;97898.22;;;8.06;44.04
21300;BME280;10809;49.476;11.016;2023-03-18T03:05:33;97911.47;;;8.05;44.53
21300;BME280;10809;49.476;11.016;2023-03-18T03:08:08;97906.28;;;8.03;44.05
21300;BME280;10809;49.476;11.016;2023-03-18T03:10:43;97917.69;;;8.04;44.44
21300;BME280;10809;49.476;11.016;2023-03-18T03:13:13;97913.44;;;8.01;44.25
21300;BME280;10809;49.476;11.016;2023-03-18T03:15:45;97915.22;;;8.01;44.28
21300;BME280;10809;49.476;11.016;2023-03-18T03:18:16;97914.44;;;7.99;44.71
21300;BME280;10809;49.476;11.016;2023-03-18T03:20:49;97917.16;;;7.97;44.65
21300;BME280;10809;49.476;11.016;2023-03-18T03:23:20;97919.88;;;7.96;44.57
21300;BME280;10809;49.476;11.016;2023-03-18T03:25:54;97917.31;;;7.94;44.85
21300;BME280;10809;49.476;11.016;2023-03-18T03:28:30;97926.16;;;7.93;44.93
21300;BME280;10809;49.476;11.016;2023-03-18T03:31:02;97927.19;;;7.91;44.83
21300;BME280;10809;49.476;11.016;2023-03-18T03:33:33;97922.81;;;7.90;44.70
21300;BME280;10809;49.476;11.016;2023-03-18T03:36:03;97929.97;;;7.88;45.06
21300;BME280;10809;49.476;11.016;2023-03-18T03:38:38;97919.59;;;7.85;45.14
21300;BME280;10809;49.476;11.016;2023-03-18T03:41:11;97926.72;;;7.82;44.96
21300;BME280;10809;49.476;11.016;2023-03-18T03:43:42;97930.34;;;7.80;45.05
21300;BME280;10809;49.476;11.016;2023-03-18T03:46:12;97925.22;;;7.77;45.21
21300;BME280;10809;49.476;11.016;2023-03-18T03:48:58;97929.81;;;7.73;45.13
21300;BME280;10809;49.476;11.016;2023-03-18T03:51:32;97931.72;;;7.70;45.06
21300;BME280;10809;49.476;11.016;2023-03-18T03:54:03;97929.25;;;7.67;45.48
21300;BME280;10809;49.476;11.016;2023-03-18T03:56:38;97929.47;;;7.62;45.25
21300;BME280;10809;49.476;11.016;2023-03-18T03:59:09;97941.13;;;7.58;45.52
21300;BME280;10809;49.476;11.016;2023-03-18T04:02:15;97938.63;;;7.55;45.40
21300;BME280;10809;49.476;11.016;2023-03-18T04:04:49;97937.91;;;7.52;45.60
21300;BME280;10809;49.476;11.016;2023-03-18T04:07:33;97943.34;;;7.49;45.64
21300;BME280;10809;49.476;11.016;2023-03-18T04:10:04;97944.44;;;7.45;45.82
21300;BME280;10809;49.476;11.016;2023-03-18T04:12:36;97941.94;;;7.42;45.76
21300;BME280;10809;49.476;11.016;2023-03-18T04:15:08;97944.72;;;7.39;46.04
21300;BME280;10809;49.476;11.016;2023-03-18T04:17:45;97943.06;;;7.36;46.09
21300;BME280;10809;49.476;11.016;2023-03-18T04:20:19;97939.69;;;7.34;45.92
21300;BME280;10809;49.476;11.016;2023-03-18T04:22:50;97938.91;;;7.32;45.82
21300;BME280;10809;49.476;11.016;2023-03-18T04:25:24;97945.09;;;7.31;46.27
21300;BME280;10809;49.476;11.016;2023-03-18T04:27:56;97940.75;;;7.30;46.33
21300;BME280;10809;49.476;11.016;2023-03-18T04:30:33;97941.69;;;7.29;46.53
21300;BME280;10809;49.476;11.016;2023-03-18T04:33:12;97932.09;;;7.28;46.34
21300;BME280;10809;49.476;11.016;2023-03-18T04:35:44;97934.63;;;7.30;46.32
21300;BME280;10809;49.476;11.016;2023-03-18T04:38:17;97933.78;;;7.29;46.51
21300;BME280;10809;49.476;11.016;2023-03-18T04:40:52;97935.53;;;7.29;46.08
21300;BME280;10809;49.476;11.016;2023-03-18T04:43:29;97940.81;;;7.29;45.99
21300;BME280;10809;49.476;11.016;2023-03-18T04:46:03;97934.72;;;7.28;46.07
21300;BME280;10809;49.476;11.016;2023-03-18T04:48:34;97936.50;;;7.28;46.35
21300;BME280;10809;49.476;11.016;2023-03-18T04:51:08;97933.84;;;7.28;46.46
21300;BME280;10809;49.476;11.016;2023-03-18T04:53:39;97938.25;;;7.27;46.31
21300;BME280;10809;49.476;11.016;2023-03-18T04:56:13;97941.81;;;7.26;46.52
21300;BME280;10809;49.476;11.016;2023-03-18T04:58:51;97945.38;;;7.25;46.35
21300;BME280;10809;49.476;11.016;2023-03-18T05:01:27;97941.91;;;7.25;46.52
21300;BME280;10809;49.476;11.016;2023-03-18T05:03:58;97940.16;;;7.24;46.55
21300;BME280;10809;49.476;11.016;2023-03-18T05:06:35;97938.56;;;7.21;46.53
21300;BME280;10809;49.476;11.016;2023-03-18T05:09:14;97940.31;;;7.21;46.52
21300;BME280;10809;49.476;11.016;2023-03-18T05:11:46;97948.28;;;7.19;46.45
21300;BME280;10809;49.476;11.016;2023-03-18T05:14:31;97958.06;;;7.17;46.58
21300;BME280;10809;49.476;11.016;2023-03-18T05:17:03;97956.41;;;7.15;46.72
21300;BME280;10809;49.476;11.016;2023-03-18T05:19:36;97955.66;;;7.13;46.67
21300;BME280;10809;49.476;11.016;2023-03-18T05:22:16;97960.13;;;7.11;46.70
21300;BME280;10809;49.476;11.016;2023-03-18T05:24:52;97952.31;;;7.09;46.78
21300;BME280;10809;49.476;11.016;2023-03-18T05:27:28;97942.81;;;7.05;46.90
21300;BME280;10809;49.476;11.016;2023-03-18T05:30:06;97955.13;;;7.05;46.92
21300;BME280;10809;49.476;11.016;2023-03-18T05:32:48;97956.97;;;7.03;47.05
21300;BME280;10809;49.476;11.016;2023-03-18T05:35:19;97955.34;;;7.00;46.95
21300;BME280;10809;49.476;11.016;2023-03-18T05:38:05;97959.81;;;6.98;47.00
21300;BME280;10809;49.476;11.016;2023-03-18T05:40:37;97963.31;;;6.99;47.35
21300;BME280;10809;49.476;11.016;2023-03-18T05:43:17;97951.16;;;6.96;47.16
21300;BME280;10809;49.476;11.016;2023-03-18T05:45:57;97954.63;;;6.97;47.33
21300;BME280;10809;49.476;11.016;2023-03-18T05:48:39;97964.31;;;6.96;47.52
21300;BME280;10809;49.476;11.016;2023-03-18T05:51:10;97965.16;;;6.97;47.38
21300;BME280;10809;49.476;11.016;2023-03-18T05:53:45;97963.44;;;6.96;47.47
21300;BME280;10809;49.476;11.016;2023-03-18T05:56:23;97962.59;;;6.95;47.61
21300;BME280;10809;49.476;11.016;2023-03-18T05:58:57;97967.84;;;6.95;47.45
21300;BME280;10809;49.476;11.016;2023-03-18T06:01:41;97962.59;;;6.95;47.58
21300;BME280;10809;49.476;11.016;2023-03-18T06:04:11;97954.75;;;6.94;47.45
21300;BME280;10809;49.476;11.016;2023-03-18T06:06:42;97955.63;;;6.94;47.77
21300;BME280;10809;49.476;11.016;2023-03-18T06:09:14;97955.63;;;6.94;47.84
21300;BME280;10809;49.476;11.016;2023-03-18T06:11:49;97965.22;;;6.95;47.71
21300;BME280;10809;49.476;11.016;2023-03-18T06:14:19;97968.72;;;6.96;47.91
21300;BME280;10809;49.476;11.016;2023-03-18T06:16:54;97966.00;;;6.97;47.83
21300;BME280;10809;49.476;11.016;2023-03-18T06:19:34;97963.31;;;6.99;48.20
21300;BME280;10809;49.476;11.016;2023-03-18T06:22:07;97969.28;;;7.02;48.20
21300;BME280;10809;49.476;11.016;2023-03-18T06:24:39;97970.91;;;7.05;48.37
21300;BME280;10809;49.476;11.016;2023-03-18T06:27:13;97967.31;;;7.07;48.27
21300;BME280;10809;49.476;11.016;2023-03-18T06:29:46;97973.22;;;7.12;48.42
21300;BME280;10809;49.476;11.016;2023-03-18T06:32:21;97969.56;;;7.15;48.33
21300;BME280;10809;49.476;11.016;2023-03-18T06:34:52;97974.63;;;7.19;48.52
21300;BME280;10809;49.476;11.016;2023-03-18T06:37:22;97967.44;;;7.23;48.52
21300;BME280;10809;49.476;11.016;2023-03-18T06:39:57;97974.28;;;7.27;48.66
21300;BME280;10809;49.476;11.016;2023-03-18T06:42:27;97973.13;;;7.32;48.84
21300;BME280;10809;49.476;11.016;2023-03-18T06:45:07;97975.53;;;7.37;48.55
21300;BME280;10809;49.476;11.016;2023-03-18T06:47:48;97984.91;;;7.42;48.63
21300;BME280;10809;49.476;11.016;2023-03-18T06:50:19;97976.88;;;7.45;48.34
21300;BME280;10809;49.476;11.016;2023-03-18T06:52:51;97986.34;;;7.49;48.48
21300;BME280;10809;49.476;11.016;2023-03-18T06:55:31;97980.94;;;7.52;48.33
21300;BME280;10809;49.476;11.016;2023-03-18T06:58:01;97988.59;;;7.57;48.26
21300;BME280;10809;49.476;11.016;2023-03-18T07:01:04;97986.56;;;7.62;48.35
21300;BME280;10809;49.476;11.016;2023-03-18T07:03:40;97983.72;;;7.66;48.43
21300;BME280;10809;49.476;11.016;2023-03-18T07:06:16;97987.94;;;7.70;48.42
21300;BME280;10809;49.476;11.016;2023-03-18T07:09:00;98000.97;;;7.73;48.09
21300;BME280;10809;49.476;11.016;2023-03-18T07:11:37;98001.63;;;7.77;48.38
21300;BME280;10809;49.476;11.016;2023-03-18T07:14:14;97994.44;;;7.80;48.21
21300;BME280;10809;49.476;11.016;2023-03-18T07:16:46;97998.66;;;7.85;48.50
21300;BME280;10809;49.476;11.016;2023-03-18T07:19:18;98000.03;;;7.92;48.67
21300;BME280;10809;49.476;11.016;2023-03-18T07:21:50;97998.78;;;7.99;48.42
21300;BME280;10809;49.476;11.016;2023-03-18T07:24:20;97999.34;;;8.05;48.81
21300;BME280;10809;49.476;11.016;2023-03-18T07:26:52;97999.91;;;8.12;48.56
21300;BME280;10809;49.476;11.016;2023-03-18T07:29:24;98006.41;;;8.22;48.44
21300;BME280;10809;49.476;11.016;2023-03-18T07:31:55;98009.44;;;8.31;48.68
21300;BME280;10809;49.476;11.016;2023-03-18T07:34:27;98011.59;;;8.40;48.85
21300;BME280;10809;49.476;11.016;2023-03-18T07:36:57;98010.25;;;8.49;48.59
21300;BME280;10809;49.476;11.016;2023-03-18T07:39:28;98018.63;;;8.57;48.16
21300;BME280;10809;49.476;11.016;2023-03-18T07:41:59;98015.53;;;8.66;48.57
21300;BME280;10809;49.476;11.016;2023-03-18T07:44:33;98016.75;;;8.76;48.37
21300;BME280;10809;49.476;11.016;2023-03-18T07:47:08;98019.59;;;8.88;48.68
21300;BME280;10809;49.476;11.016;2023-03-18T07:49:39;98017.09;;;9.02;49.10
21300;BME280;10809;49.476;11.016;2023-03-18T07:52:13;98019.66;;;9.19;49.02
21300;BME280;10809;49.476;11.016;2023-03-18T07:54:44;98029.31;;;9.36;48.87
21300;BME280;10809;49.476;11.016;2023-03-18T07:57:14;98022.22;;;9.52;48.80
21300;BME280;10809;49.476;11.016;2023-03-18T07:59:48;98028.28;;;9.70;48.63
21300;BME280;10809;49.476;11.016;2023-03-18T08:02:21;98028.28;;;9.85;48.92
21300;BME280;10809;49.476;11.016;2023-03-18T08:04:56;98029.03;;;10.03;48.57
21300;BME280;10809;49.476;11.016;2023-03-18T08:07:26;98029.75;;;10.20;48.55
21300;BME280;10809;49.476;11.016;2023-03-18T08:10:03;98027.06;;;10.36;48.67
21300;BME280;10809;49.476;11.016;2023-03-18T08:12:34;98024.44;;;10.50;47.99
21300;BME280;10809;49.476;11.016;2023-03-18T08:15:05;98022.75;;;10.63;48.18
21300;BME280;10809;49.476;11.016;2023-03-18T08:17:38;98029.03;;;10.76;48.01
21300;BME280;10809;49.476;11.016;2023-03-18T08:20:09;98029.97;;;10.89;47.77
21300;BME280;10809;49.476;11.016;2023-03-18T08:22:41;98035.38;;;11.01;48.02
21300;BME280;10809;49.476;11.016;2023-03-18T08:25:14;98030.72;;;11.19;48.24
21300;BME280;10809;49.476;11.016;2023-03-18T08:27:45;98031.31;;;11.38;48.23
21300;BME280;10809;49.476;11.016;2023-03-18T08:30:16;98029.84;;;11.61;48.18
21300;BME280;10809;49.476;11.016;2023-03-18T08:32:47;98028.47;;;11.82;48.25
21300;BME280;10809;49.476;11.016;2023-03-18T08:35:17;98030.47;;;12.05;48.02
21300;BME280;10809;49.476;11.016;2023-03-18T08:37:48;98032.66;;;12.25;47.53
21300;BME280;10809;49.476;11.016;2023-03-18T08:40:22;98029.78;;;12.42;47.04
21300;BME280;10809;49.476;11.016;2023-03-18T08:42:53;98033.41;;;12.53;46.60
21300;BME280;10809;49.476;11.016;2023-03-18T08:45:27;98033.63;;;12.63;46.24
21300;BME280;10809;49.476;11.016;2023-03-18T08:47:58;98032.13;;;12.71;46.24
21300;BME280;10809;49.476;11.016;2023-03-18T08:50:28;98032.56;;;12.78;46.26
21300;BME280;10809;49.476;11.016;2023-03-18T08:52:59;98031.28;;;12.83;46.13
21300;BME280;10809;49.476;11.016;2023-03-18T08:55:35;98026.53;;;12.88;45.95
21300;BME280;10809;49.476;11.016;2023-03-18T08:58:10;98027.06;;;12.93;46.08
21300;BME280;10809;49.476;11.016;2023-03-18T09:00:47;98024.91;;;12.98;45.95
21300;BME280;10809;49.476;11.016;2023-03-18T09:03:19;98029.91;;;13.03;46.02
21300;BME280;10809;49.476;11.016;2023-03-18T09:05:51;98023.22;;;13.10;46.13
21300;BME280;10809;49.476;11.016;2023-03-18T09:08:25;98023.41;;;13.20;46.21
21300;BME280;10809;49.476;11.016;2023-03-18T09:10:56;98018.41;;;13.28;46.07
21300;BME280;10809;49.476;11.016;2023-03-18T09:13:27;98016.66;;;13.39;45.85
21300;BME280;10809;49.476;11.016;2023-03-18T09:15:58;98016.78;;;13.50;46.11
21300;BME280;10809;49.476;11.016;2023-03-18T09:18:29;98014.97;;;13.63;45.72
21300;BME280;10809;49.476;11.016;2023-03-18T09:21:00;98014.78;;;13.77;45.87
21300;BME280;10809;49.476;11.016;2023-03-18T09:23:31;98011.34;;;13.88;44.97
21300;BME280;10809;49.476;11.016;2023-03-18T09:26:03;98008.03;;;13.97;45.05
21300;BME280;10809;49.476;11.016;2023-03-18T09:28:34;98013.00;;;14.01;44.62
21300;BME280;10809;49.476;11.016;2023-03-18T09:31:05;98009.16;;;14.05;44.34
21300;BME280;10809;49.476;11.016;2023-03-18T09:33:36;98010.81;;;14.06;44.02
21300;BME280;10809;49.476;11.016;2023-03-18T09:36:07;98008.28;;;14.05;44.08
21300;BME280;10809;49.476;11.016;2023-03-18T09:38:38;98010.00;;;14.06;44.15
21300;BME280;10809;49.476;11.016;2023-03-18T09:53:05;98009.56;;;14.23;44.32
21300;BME280;10809;49.476;11.016;2023-03-18T09:55:57;98012.84;;;14.26;44.00
21300;BME280;10809;49.476;11.016;2023-03-18T09:58:51;98011.66;;;14.30;44.08
21300;BME280;10809;49.476;11.016;2023-03-18T10:01:26;98020.28;;;14.34;44.03
21300;BME280;10809;49.476;11.016;2023-03-18T10:04:34;98010.84;;;14.41;43.83
21300;BME280;10809;49.476;11.016;2023-03-18T10:07:13;98013.81;;;14.49;43.54
21300;BME280;10809;49.476;11.016;2023-03-18T10:10:08;98007.19;;;14.54;43.22
21300;BME280;10809;49.476;11.016;2023-03-18T10:12:47;98008.41;;;14.61;43.64
21300;BME280;10809;49.476;11.016;2023-03-18T10:15:31;98014.00;;;14.69;43.00
21300;BME280;10809;49.476;11.016;2023-03-18T10:18:11;98012.44;;;14.78;42.64
21300;BME280;10809;49.476;11.016;2023-03-18T10:21:41;98012.09;;;14.83;42.62
21300;BME280;10809;49.476;11.016;2023-03-18T10:37:45;98000.88;;;15.12;42.39
21300;BME280;10809;49.476;11.016;2023-03-18T10:40:20;97995.03;;;15.18;42.26
21300;BME280;10809;49.476;11.016;2023-03-18T10:42:52;97984.00;;;15.23;42.12
21300;BME280;10809;49.476;11.016;2023-03-18T10:45:27;97990.41;;;15.31;41.56
21300;BME280;10809;49.476;11.016;2023-03-18T10:48:05;97978.19;;;15.40;41.52
21300;BME280;10809;49.476;11.016;2023-03-18T10:50:51;97976.75;;;15.47;41.32
21300;BME280;10809;49.476;11.016;2023-03-18T10:56:26;97974.06;;;15.58;41.27
21300;BME280;10809;49.476;11.016;2023-03-18T10:58:58;97964.56;;;15.65;40.80
21300;BME280;10809;49.476;11.016;2023-03-18T11:01:38;97970.41;;;15.70;41.05
21300;BME280;10809;49.476;11.016;2023-03-18T11:04:13;97972.56;;;15.76;41.33
21300;BME280;10809;49.476;11.016;2023-03-18T11:06:50;97971.19;;;15.81;40.74
21300;BME280;10809;49.476;11.016;2023-03-18T11:09:36;97964.63;;;15.85;41.01
21300;BME280;10809;49.476;11.016;2023-03-18T11:12:26;97961.44;;;15.91;40.70
21300;BME280;10809;49.476;11.016;2023-03-18T11:14:58;97960.13;;;15.97;40.67
21300;BME280;10809;49.476;11.016;2023-03-18T11:17:31;97962.41;;;16.01;40.13
21300;BME280;10809;49.476;11.016;2023-03-18T11:23:04;97958.97;;;16.10;40.77
21300;BME280;10809;49.476;11.016;2023-03-18T11:25:44;97955.78;;;16.16;40.35
21300;BME280;10809;49.476;11.016;2023-03-18T11:28:26;97953.44;;;16.23;40.29
21300;BME280;10809;49.476;11.016;2023-03-18T11:31:04;97947.63;;;16.29;40.39
21300;BME280;10809;49.476;11.016;2023-03-18T11:33:38;97951.47;;;16.36;39.96
21300;BME280;10809;49.476;11.016;2023-03-18T11:36:16;97957.97;;;16.43;40.16
21300;BME280;10809;49.476;11.016;2023-03-18T11:39:01;97954.91;;;16.48;39.89
21300;BME280;10809;49.476;11.016;2023-03-18T11:41:36;97947.63;;;16.50;39.33
21300;BME280;10809;49.476;11.016;2023-03-18T11:44:18;97943.13;;;16.50;39.44
21300;BME280;10809;49.476;11.016;2023-03-18T11:46:58;97946.53;;;16.52;39.35
21300;BME280;10809;49.476;11.016;2023-03-18T11:49:30;97947.34;;;16.53;39.54
21300;BME280;10809;49.476;11.016;2023-03-18T11:52:44;97941.75;;;16.56;39.80
21300;BME280;10809;49.476;11.016;2023-03-18T12:05:08;97921.44;;;16.74;39.64
21300;BME280;10809;49.476;11.016;2023-03-18T12:08:11;97914.88;;;16.78;39.38
21300;BME280;10809;49.476;11.016;2023-03-18T12:10:54;97917.16;;;16.82;38.94
21300;BME280;10809;49.476;11.016;2023-03-18T12:13:55;97907.88;;;16.86;38.59
21300;BME280;10809;49.476;11.016;2023-03-18T12:16:55;97905.78;;;16.90;39.26
21300;BME280;10809;49.476;11.016;2023-03-18T12:37:59;97889.03;;;17.27;38.11
21300;BME280;10809;49.476;11.016;2023-03-18T12:40:59;97882.28;;;17.33;38.62
21300;BME280;10809;49.476;11.016;2023-03-18T12:43:37;97887.22;;;17.37;38.33
21300;BME280;10809;49.476;11.016;2023-03-18T12:49:41;97880.75;;;17.49;38.43
21300;BME280;10809;49.476;11.016;2023-03-18T12:55:21;97883.59;;;17.57;38.01
21300;BME280;10809;49.476;11.016;2023-03-18T13:00:35;97886.44;;;17.65;37.48
21300;BME280;10809;49.476;11.016;2023-03-18T13:14:43;97877.16;;;17.88;37.41
21300;BME280;10809;49.476;11.016;2023-03-18T13:17:28;97866.03;;;17.93;37.46
21300;BME280;10809;49.476;11.016;2023-03-18T13:20:12;97863.78;;;17.98;36.95
21300;BME280;10809;49.476;11.016;2023-03-18T13:22:55;97866.03;;;18.02;37.28
21300;BME280;10809;49.476;11.016;2023-03-18T13:25:39;97866.44;;;18.07;37.18
21300;BME280;10809;49.476;11.016;2023-03-18T13:28:26;97864.06;;;18.14;36.80
21300;BME280;10809;49.476;11.016;2023-03-18T13:42:13;97852.84;;;18.38;36.78
21300;BME280;10809;49.476;11.016;2023-03-18T13:44:52;97849.75;;;18.42;36.41
21300;BME280;10809;49.476;11.016;2023-03-18T13:47:30;97846.47;;;18.48;36.29
21300;BME280;10809;49.476;11.016;2023-03-18T13:52:54;97848.84;;;18.61;35.79
21300;BME280;10809;49.476;11.016;2023-03-18T13:58:35;97835.84;;;18.66;36.24
21300;BME280;10809;49.476;11.016;2023-03-18T14:01:25;97838.25;;;18.69;36.09
21300;BME280;10809;49.476;11.016;2023-03-18T14:04:27;97835.41;;;18.70;35.35
21300;BME280;10809;49.476;11.016;2023-03-18T14:06:52;97832.03;;;18.68;35.07
21300;BME280;10809;49.476;11.016;2023-03-18T14:17:37;97830.25;;;18.50;34.95
21300;BME280;10809;49.476;11.016;2023-03-18T14:23:27;97829.59;;;18.38;35.23
21300;BME280;10809;49.476;11.016;2023-03-18T14:26:00;97823.66;;;18.35;35.11
21300;BME280;10809;49.476;11.016;2023-03-18T14:28:49;97832.84;;;18.32;34.99
21300;BME280;10809;49.476;11.016;2023-03-18T14:45:18;97813.78;;;18.45;35.67
21300;BME280;10809;49.476;11.016;2023-03-18T14:47:54;97822.34;;;18.48;35.08
21300;BME280;10809;49.476;11.016;2023-03-18T14:50:40;97814.88;;;18.52;34.93
21300;BME280;10809;49.476;11.016;2023-03-18T14:53:19;97819.78;;;18.56;34.62
21300;BME280;10809;49.476;11.016;2023-03-18T14:55:52;97815.56;;;18.54;34.03
21300;BME280;10809;49.476;11.016;2023-03-18T14:58:26;97810.50;;;18.51;34.33
21300;BME280;10809;49.476;11.016;2023-03-18T15:01:04;97815.16;;;18.49;34.36
21300;BME280;10809;49.476;11.016;2023-03-18T15:03:37;97812.06;;;18.44;34.20
21300;BME280;10809;49.476;11.016;2023-03-18T15:06:38;97811.53;;;18.40;34.75
21300;BME280;10809;49.476;11.016;2023-03-18T15:09:15;97812.50;;;18.39;34.71
21300;BME280;10809;49.476;11.016;2023-03-18T15:11:47;97819.72;;;18.39;34.84
21300;BME280;10809;49.476;11.016;2023-03-18T15:14:23;97812.50;;;18.39;34.59
21300;BME280;10809;49.476;11.016;2023-03-18T15:17:04;97814.34;;;18.39;34.89
21300;BME280;10809;49.476;11.016;2023-03-18T15:19:41;97813.34;;;18.40;34.84
21300;BME280;10809;49.476;11.016;2023-03-18T15:22:21;97808.13;;;18.38;34.89
21300;BME280;10809;49.476;11.016;2023-03-18T15:25:02;97808.69;;;18.42;34.97
21300;BME280;10809;49.476;11.016;2023-03-18T15:27:35;97800.38;;;18.45;34.69
21300;BME280;10809;49.476;11.016;2023-03-18T15:30:20;97805.28;;;18.49;34.40
21300;BME280;10809;49.476;11.016;2023-03-18T15:33:17;97795.66;;;18.56;34.82
21300;BME280;10809;49.476;11.016;2023-03-18T15:36:22;97792.22;;;18.64;34.89
21300;BME280;10809;49.476;11.016;2023-03-18T15:38:53;97801.69;;;18.68;34.44
21300;BME280;10809;49.476;11.016;2023-03-18T15:41:25;97798.56;;;18.72;33.94
21300;BME280;10809;49.476;11.016;2023-03-18T15:43:56;97800.13;;;18.75;34.24
21300;BME280;10809;49.476;11.016;2023-03-18T15:46:33;97809.03;;;18.75;33.89
21300;BME280;10809;49.476;11.016;2023-03-18T15:49:09;97803.94;;;18.72;34.02
21300;BME280;10809;49.476;11.016;2023-03-18T15:51:46;97803.94;;;18.72;33.52